Hanna, Wyoming
Current Conditions -  °F | °C
As of 6:15 PM on Friday 28 Nov 2014 (Local Time) from KEHY Reporting Station
Clear Clear  
Wind Chill: 37°   Ceiling: Unl
Heat Index: 46°   Visibility: 10mi
Dew Point: 10°   Wind: 29mph
Humidity: 23%   Direction: 210°SSW
Pressure: 29.86"   Gusts: 40mph
Location:  41.87°N, 106.56°W
Report Text: KEHY 290115Z AUTO 21025G35KT 10SM CLR 08/M12 A2986 RMK AO2
Loading
Personal Weather Stations






























Interactive Weather Map New forecast layout! Learn more

10-Day Weather Forecast

Advertisements
Track Severe Weather on mobile